createdAt,value
2022-10-02T00:01:07.811Z,100179.09
2022-10-02T00:03:39.881Z,100186.53
2022-10-02T00:06:11.939Z,100177.63
2022-10-02T00:08:42.317Z,100186.13
2022-10-02T00:11:17.281Z,100190.28
2022-10-02T00:13:47.893Z,100196.84
2022-10-02T00:16:24.834Z,100184.44
2022-10-02T00:18:55.771Z,100189.00
2022-10-02T00:21:36.088Z,100197.72
2022-10-02T00:24:06.514Z,100194.41
2022-10-02T00:26:41.981Z,100203.13
2022-10-02T00:29:25.487Z,100196.53
2022-10-02T00:32:07.066Z,100204.16
2022-10-02T00:34:41.494Z,100211.19
2022-10-02T00:37:21.472Z,100202.28
2022-10-02T00:40:02.995Z,100202.94
2022-10-02T00:42:58.902Z,100198.41
2022-10-02T00:45:49.955Z,100204.81
2022-10-02T00:48:35.818Z,100208.31
2022-10-02T00:51:15.491Z,100209.16
2022-10-02T00:53:53.260Z,100214.75
2022-10-02T00:56:29.252Z,100191.97
2022-10-02T00:59:13.453Z,100192.22
2022-10-02T01:01:47.203Z,100200.91
2022-10-02T01:04:20.620Z,100202.13
2022-10-02T01:06:48.394Z,100194.91
2022-10-02T01:09:16.706Z,100198.22
2022-10-02T01:11:44.933Z,100189.53
2022-10-02T01:14:14.957Z,100197.81
2022-10-02T01:16:42.940Z,100191.81
2022-10-02T01:19:21.988Z,100193.69
2022-10-02T01:21:54.242Z,100184.78
2022-10-02T01:24:29.695Z,100182.28
2022-10-02T01:26:59.334Z,100185.63
2022-10-02T01:29:27.117Z,100189.75
2022-10-02T01:31:55.354Z,100195.97
2022-10-02T01:34:23.870Z,100209.00
2022-10-02T01:36:51.712Z,100210.47
2022-10-02T01:39:19.595Z,100216.25
2022-10-02T01:41:47.385Z,100214.59
2022-10-02T01:44:16.980Z,100221.66
2022-10-02T01:46:51.634Z,100218.56
2022-10-02T01:49:35.244Z,100208.41
2022-10-02T01:52:20.098Z,100213.38
2022-10-02T01:55:04.059Z,100204.91
2022-10-02T01:57:46.748Z,100210.47
2022-10-02T02:00:18.676Z,100208.19
2022-10-02T02:02:57.857Z,100216.91
2022-10-02T02:05:35.684Z,100207.59
2022-10-02T02:08:10.817Z,100210.28
2022-10-02T02:10:47.388Z,100220.00
2022-10-02T02:13:21.523Z,100212.34
2022-10-02T02:15:58.936Z,100213.59
2022-10-02T02:18:30.089Z,100213.16
2022-10-02T02:21:02.333Z,100211.28
2022-10-02T02:23:33.609Z,100204.06
2022-10-02T02:26:04.434Z,100204.03
2022-10-02T02:28:34.182Z,100202.00
2022-10-02T02:31:06.038Z,100205.06
2022-10-02T02:33:39.875Z,100203.88
2022-10-02T02:36:13.616Z,100195.97
2022-10-02T02:38:47.088Z,100195.16
2022-10-02T02:41:21.083Z,100205.72
2022-10-02T02:43:55.068Z,100200.34
2022-10-02T02:46:29.533Z,100201.56
2022-10-02T02:49:04.019Z,100205.09
2022-10-02T02:51:42.088Z,100202.81
2022-10-02T02:54:16.787Z,100207.38
2022-10-02T02:56:46.539Z,100203.84
2022-10-02T02:59:15.905Z,100211.09
2022-10-02T03:01:45.113Z,100207.78
2022-10-02T03:04:14.196Z,100226.84
2022-10-02T03:06:43.923Z,100211.72
2022-10-02T03:09:14.785Z,100226.63
2022-10-02T03:11:52.395Z,100230.97
2022-10-02T03:14:41.385Z,100220.84
2022-10-02T03:17:22.800Z,100206.94
2022-10-02T03:19:55.676Z,100208.19
2022-10-02T03:22:35.690Z,100213.56
2022-10-02T03:25:14.200Z,100202.00
2022-10-02T03:27:47.392Z,100201.34
2022-10-02T03:30:20.495Z,100189.13
2022-10-02T03:32:53.447Z,100186.44
2022-10-02T03:35:22.647Z,100188.13
2022-10-02T03:37:53.936Z,100181.91
2022-10-02T03:40:24.121Z,100188.13
2022-10-02T03:42:52.937Z,100171.78
2022-10-02T03:45:46.284Z,100190.19
2022-10-02T03:48:10.267Z,100189.56
2022-10-02T03:50:37.874Z,100194.09
2022-10-02T03:53:13.896Z,100206.75
2022-10-02T03:55:46.430Z,100214.00
2022-10-02T03:58:17.195Z,100217.53
2022-10-02T04:00:53.338Z,100227.66
2022-10-02T04:03:27.272Z,100223.53
2022-10-02T04:06:00.161Z,100215.66
2022-10-02T04:08:32.538Z,100225.38
2022-10-02T04:11:07.915Z,100215.66
2022-10-02T04:13:40.866Z,100214.41
2022-10-02T04:16:14.192Z,100229.94
2022-10-02T04:18:52.571Z,100215.66
2022-10-02T04:21:34.295Z,100203.25
2022-10-02T04:24:10.255Z,100216.88
2022-10-02T04:26:47.158Z,100206.72
2022-10-02T04:29:19.650Z,100212.59
2022-10-02T04:31:52.048Z,100218.94
2022-10-02T04:34:21.180Z,100220.22
2022-10-02T04:37:03.472Z,100214.03
2022-10-02T04:39:46.390Z,100218.34
2022-10-02T04:42:33.235Z,100220.63
2022-10-02T04:45:18.239Z,100227.66
2022-10-02T04:48:27.080Z,100225.19
2022-10-02T04:51:03.000Z,100222.09
2022-10-02T04:53:46.794Z,100224.78
2022-10-02T04:56:37.985Z,100226.22
2022-10-02T04:59:18.805Z,100235.78
2022-10-02T05:01:59.482Z,100227.22
2022-10-02T05:04:59.306Z,100223.31
2022-10-02T05:07:59.971Z,100215.84
2022-10-02T05:10:50.058Z,100208.22
2022-10-02T05:13:38.568Z,100213.41
2022-10-02T05:16:27.901Z,100212.59
2022-10-02T05:19:10.489Z,100207.34
2022-10-02T05:21:51.565Z,100205.91
2022-10-02T05:24:38.392Z,100208.16
2022-10-02T05:27:23.723Z,100214.38
2022-10-02T05:30:05.708Z,100222.06
2022-10-02T05:33:11.874Z,100219.59
2022-10-02T05:35:59.389Z,100209.44
2022-10-02T05:38:53.043Z,100206.72
2022-10-02T05:41:29.771Z,100211.06
2022-10-02T05:44:02.573Z,100211.28
2022-10-02T05:46:36.450Z,100219.19
2022-10-02T05:49:10.866Z,100251.47
2022-10-02T05:51:45.328Z,100240.28
2022-10-02T05:54:26.258Z,100244.44
2022-10-02T05:56:59.351Z,100242.97
2022-10-02T05:59:33.532Z,100248.16
2022-10-02T06:02:05.337Z,100239.91
2022-10-02T06:04:38.529Z,100249.63
2022-10-02T06:07:10.928Z,100242.00
2022-10-02T06:09:48.948Z,100246.28
2022-10-02T06:12:26.633Z,100244.47
2022-10-02T06:15:00.978Z,100232.88
2022-10-02T06:17:31.863Z,100228.50
2022-10-02T06:20:04.336Z,100234.09
2022-10-02T06:22:36.693Z,100224.38
2022-10-02T06:25:12.956Z,100224.16
2022-10-02T06:27:47.704Z,100219.19
2022-10-02T06:30:17.643Z,100226.25
2022-10-02T06:32:55.441Z,100224.75
2022-10-02T06:35:37.489Z,100231.19
2022-10-02T06:38:20.996Z,100230.56
2022-10-02T06:41:01.698Z,100232.03
2022-10-02T06:43:59.258Z,100233.88
2022-10-02T06:46:35.264Z,100246.13
2022-10-02T06:49:10.183Z,100243.63
2022-10-02T06:51:49.865Z,100245.91
2022-10-02T06:54:32.678Z,100247.13
2022-10-02T06:57:35.805Z,100251.53
2022-10-02T07:00:12.165Z,100247.53
2022-10-02T07:03:24.221Z,100251.88
2022-10-02T07:06:11.483Z,100256.25
2022-10-02T07:08:55.134Z,100256.25
2022-10-02T07:11:29.273Z,100258.13
2022-10-02T07:14:16.281Z,100260.84
2022-10-02T07:17:12.034Z,100256.84
2022-10-02T07:19:57.724Z,100252.53
2022-10-02T07:22:44.902Z,100255.63
2022-10-02T07:25:39.571Z,100262.66
2022-10-02T07:28:13.146Z,100261.22
2022-10-02T07:30:54.382Z,100263.50
2022-10-02T07:33:34.753Z,100258.94
2022-10-02T07:36:10.487Z,100254.38
2022-10-02T07:38:55.915Z,100252.91
2022-10-02T07:41:49.494Z,100261.59
2022-10-02T07:44:27.989Z,100259.34
2022-10-02T07:47:04.528Z,100257.03
2022-10-02T07:49:45.478Z,100261.78
2022-10-02T07:52:22.203Z,100265.72
2022-10-02T07:55:20.791Z,100264.06
2022-10-02T07:57:59.759Z,100262.47
2022-10-02T08:00:31.318Z,100267.63
2022-10-02T08:03:02.929Z,100274.84
2022-10-02T08:05:35.954Z,100274.25
2022-10-02T08:08:12.100Z,100269.47
2022-10-02T08:10:44.640Z,100280.06
2022-10-02T08:13:20.450Z,100276.31
2022-10-02T08:15:51.582Z,100272.19
2022-10-02T08:18:36.947Z,100275.91
2022-10-02T08:21:12.654Z,100281.28
2022-10-02T08:23:44.529Z,100280.06
2022-10-02T08:26:18.738Z,100277.97
2022-10-02T08:28:57.803Z,100277.16
2022-10-02T08:31:26.346Z,100281.28
2022-10-02T08:33:55.416Z,100274.22
2022-10-02T08:36:54.370Z,100262.97
2022-10-02T08:39:50.413Z,100266.69
2022-10-02T08:42:56.299Z,100267.94
2022-10-02T08:46:13.153Z,100265.63
2022-10-02T08:49:19.355Z,100271.63
2022-10-02T08:52:20.489Z,100277.44
2022-10-02T08:55:19.127Z,100278.72
2022-10-02T08:58:19.513Z,100283.66
2022-10-02T09:00:59.647Z,100289.44
2022-10-02T09:03:54.301Z,100294.16
2022-10-02T09:06:56.761Z,100296.88
2022-10-02T09:10:12.739Z,100300.22
2022-10-02T09:13:14.182Z,100298.34
2022-10-02T09:15:47.006Z,100292.06
2022-10-02T09:18:24.761Z,100283.31
2022-10-02T09:21:15.986Z,100291.19
2022-10-02T09:24:15.967Z,100285.63
2022-10-02T09:27:08.642Z,100290.81
2022-10-02T09:30:16.722Z,100285.22
2022-10-02T09:33:16.121Z,100289.34
2022-10-02T09:36:06.412Z,100285.41
2022-10-02T09:39:01.838Z,100293.56
2022-10-02T09:42:06.236Z,100298.50
2022-10-02T09:45:11.079Z,100288.75
2022-10-02T09:48:17.439Z,100278.13
2022-10-02T09:51:07.625Z,100276.19
2022-10-02T09:54:01.130Z,100282.41
2022-10-02T09:56:58.748Z,100280.88
2022-10-02T09:59:49.661Z,100285.31
2022-10-02T10:02:43.746Z,100274.00
2022-10-02T10:05:34.033Z,100273.38
2022-10-02T10:08:36.122Z,100265.75
2022-10-02T10:11:38.544Z,100278.22
2022-10-02T10:14:51.863Z,100273.53
2022-10-02T10:17:59.422Z,100269.13
2022-10-02T10:21:07.257Z,100272.00
2022-10-02T10:23:57.880Z,100270.75
2022-10-02T10:26:49.421Z,100268.75
2022-10-02T10:29:54.311Z,100267.03
2022-10-02T10:33:01.302Z,100273.44
2022-10-02T10:35:53.700Z,100284.53
2022-10-02T10:38:52.217Z,100288.16
2022-10-02T10:41:44.713Z,100298.34
2022-10-02T10:44:37.471Z,100296.38
2022-10-02T10:47:34.926Z,100293.91
2022-10-02T10:50:30.876Z,100303.28
2022-10-02T10:53:17.448Z,100314.31
2022-10-02T10:56:11.042Z,100302.09
2022-10-02T10:59:00.217Z,100299.56
2022-10-02T11:01:43.312Z,100303.91
2022-10-02T11:04:33.954Z,100307.03
2022-10-02T11:07:15.512Z,100312.38
2022-10-02T11:10:11.863Z,100298.94
2022-10-02T11:12:58.406Z,100304.09
2022-10-02T11:15:53.104Z,100318.44
2022-10-02T11:18:33.212Z,100305.38
2022-10-02T11:21:24.230Z,100309.50
2022-10-02T11:24:21.775Z,100303.69
2022-10-02T11:27:09.509Z,100309.66
2022-10-02T11:30:12.732Z,100301.63
2022-10-02T11:33:03.094Z,100306.97
2022-10-02T11:35:38.188Z,100313.31
2022-10-02T11:38:32.835Z,100316.66
2022-10-02T11:41:41.967Z,100319.03
2022-10-02T11:44:16.837Z,100329.47
2022-10-02T11:47:01.712Z,100333.84
2022-10-02T11:50:00.144Z,100337.34
2022-10-02T11:52:56.730Z,100325.78
2022-10-02T11:55:38.600Z,100324.75
2022-10-02T11:58:20.477Z,100334.84
2022-10-02T12:01:09.421Z,100327.16
2022-10-02T12:03:52.176Z,100324.56
2022-10-02T12:06:34.473Z,100324.47
2022-10-02T12:09:10.231Z,100319.03
2022-10-02T12:11:45.850Z,100329.88
2022-10-02T12:14:26.546Z,100319.47
2022-10-02T12:17:08.389Z,100327.38
2022-10-02T12:20:10.944Z,100315.41
2022-10-02T12:23:06.354Z,100323.34
2022-10-02T12:25:59.053Z,100317.16
2022-10-02T12:28:36.394Z,100324.56
2022-10-02T12:31:14.266Z,100323.63
2022-10-02T12:33:55.699Z,100321.88
2022-10-02T12:36:36.065Z,100323.78
2022-10-02T12:39:16.746Z,100315.41
2022-10-02T12:42:04.556Z,100308.50
2022-10-02T12:44:48.728Z,100308.91
2022-10-02T12:47:49.259Z,100299.75
2022-10-02T12:50:27.679Z,100295.78
2022-10-02T12:53:31.026Z,100289.72
2022-10-02T12:56:35.749Z,100296.03
2022-10-02T12:59:12.313Z,100306.25
2022-10-02T13:02:10.940Z,100311.78
2022-10-02T13:05:14.151Z,100303.75
2022-10-02T13:08:19.872Z,100304.09
2022-10-02T13:10:55.028Z,100309.94
2022-10-02T13:13:36.699Z,100308.56
2022-10-02T13:16:13.756Z,100306.63
2022-10-02T13:18:59.459Z,100302.50
2022-10-02T13:21:38.994Z,100309.50
2022-10-02T13:24:26.670Z,100306.63
2022-10-02T13:27:03.102Z,100311.94
2022-10-02T13:29:45.726Z,100304.69
2022-10-02T13:32:38.238Z,100308.50
2022-10-02T13:35:32.455Z,100319.09
2022-10-02T13:38:18.494Z,100310.59
2022-10-02T13:40:57.013Z,100309.50
2022-10-02T13:44:01.056Z,100315.16
2022-10-02T13:46:49.471Z,100312.50
2022-10-02T13:49:31.694Z,100315.25
2022-10-02T13:52:17.736Z,100321.31
2022-10-02T13:55:26.852Z,100325.59
2022-10-02T13:58:23.380Z,100321.03
2022-10-02T14:01:21.749Z,100330.31
2022-10-02T14:04:13.251Z,100325.06
2022-10-02T14:06:51.612Z,100321.63
2022-10-02T14:09:52.436Z,100320.09
2022-10-02T14:12:37.250Z,100313.09
2022-10-02T14:15:20.508Z,100323.13
2022-10-02T14:18:10.416Z,100315.00
2022-10-02T14:20:45.432Z,100304.41
2022-10-02T14:23:38.110Z,100314.28
2022-10-02T14:26:22.308Z,100315.03
2022-10-02T14:29:24.118Z,100328.56
2022-10-02T14:35:47.719Z,100323.63
2022-10-02T14:38:31.871Z,100325.06
2022-10-02T14:41:15.063Z,100323.69
2022-10-02T14:44:10.707Z,100320.50
2022-10-02T14:47:15.259Z,100317.50
2022-10-02T14:50:04.630Z,100322.88
2022-10-02T14:52:53.090Z,100330.75
2022-10-02T14:55:34.533Z,100320.88
2022-10-02T14:58:17.783Z,100330.78
2022-10-02T15:01:02.500Z,100343.91
2022-10-02T15:04:01.325Z,100341.84
2022-10-02T15:06:41.037Z,100341.84
2022-10-02T15:09:17.002Z,100341.97
2022-10-02T15:11:54.383Z,100338.75
2022-10-02T15:14:29.083Z,100340.63
2022-10-02T15:17:19.834Z,100344.38
2022-10-02T15:19:50.395Z,100338.78
2022-10-02T15:22:25.395Z,100343.56
2022-10-02T15:24:57.701Z,100344.22
2022-10-02T15:27:27.152Z,100344.78
2022-10-02T15:30:06.094Z,100339.63
2022-10-02T15:33:10.156Z,100345.91
2022-10-02T15:35:52.830Z,100337.34
2022-10-02T15:38:47.430Z,100333.25
2022-10-02T15:41:33.150Z,100336.81
2022-10-02T15:44:09.981Z,100336.88
2022-10-02T15:46:55.483Z,100337.50
2022-10-02T15:49:38.570Z,100339.44
2022-10-02T15:52:12.386Z,100342.16
2022-10-02T15:54:48.600Z,100345.53
2022-10-02T15:57:39.991Z,100347.03
2022-10-02T16:00:14.721Z,100352.41
2022-10-02T16:02:57.593Z,100348.88
2022-10-02T16:05:50.157Z,100352.66
2022-10-02T16:08:39.710Z,100349.13
2022-10-02T16:11:28.269Z,100355.34
2022-10-02T16:14:02.074Z,100355.38
2022-10-02T16:16:58.549Z,100357.25
2022-10-02T16:19:47.606Z,100363.25
2022-10-02T16:22:30.260Z,100375.72
2022-10-02T16:25:19.452Z,100373.88
2022-10-02T16:27:57.807Z,100375.75
2022-10-02T16:30:27.491Z,100383.19
2022-10-02T16:33:29.188Z,100384.50
2022-10-02T16:36:17.559Z,100399.03
2022-10-02T16:38:51.299Z,100394.44
2022-10-02T16:41:36.887Z,100396.31
2022-10-02T16:44:25.572Z,100400.69
2022-10-02T16:46:59.334Z,100401.09
2022-10-02T16:49:34.205Z,100405.06
2022-10-02T16:52:10.008Z,100409.00
2022-10-02T16:54:47.923Z,100409.19
2022-10-02T16:57:23.903Z,100408.38
2022-10-02T17:00:01.006Z,100410.88
2022-10-02T17:02:41.108Z,100423.09
2022-10-02T17:05:16.676Z,100430.78
2022-10-02T17:07:53.937Z,100436.56
2022-10-02T17:10:33.864Z,100435.94
2022-10-02T17:13:16.022Z,100438.00
2022-10-02T17:15:50.159Z,100441.72
2022-10-02T17:18:27.659Z,100453.31
2022-10-02T17:20:57.574Z,100462.03
2022-10-02T17:23:30.827Z,100455.41
2022-10-02T17:26:06.844Z,100464.13
2022-10-02T17:28:42.463Z,100464.72
2022-10-02T17:31:41.839Z,100464.53
2022-10-02T17:34:19.962Z,100468.84
2022-10-02T17:36:54.863Z,100474.00
2022-10-02T17:39:45.195Z,100480.00
2022-10-02T17:42:23.482Z,100479.41
2022-10-02T17:45:01.865Z,100480.00
2022-10-02T17:48:01.492Z,100491.75
2022-10-02T17:50:52.571Z,100496.72
2022-10-02T17:54:00.142Z,100495.69
2022-10-02T17:56:57.084Z,100500.41
2022-10-02T17:59:58.100Z,100516.50
2022-10-02T18:02:50.790Z,100519.56
2022-10-02T18:05:30.709Z,100515.84
2022-10-02T18:08:13.037Z,100523.66
2022-10-02T18:10:49.554Z,100531.94
2022-10-02T18:13:42.489Z,100537.47
2022-10-02T18:16:28.944Z,100537.22
2022-10-02T18:19:29.002Z,100551.09
2022-10-02T18:22:12.751Z,100555.38
2022-10-02T18:25:05.011Z,100553.72
2022-10-02T18:27:50.446Z,100562.22
2022-10-02T18:30:21.148Z,100553.31
2022-10-02T18:33:10.369Z,100562.88
2022-10-02T18:35:50.127Z,100562.63
2022-10-02T18:38:30.216Z,100562.56
2022-10-02T18:41:08.720Z,100575.78
2022-10-02T18:43:53.167Z,100577.44
2022-10-02T18:46:32.910Z,100580.06
2022-10-02T18:49:28.525Z,100587.69
2022-10-02T18:52:21.746Z,100590.97
2022-10-02T18:55:03.979Z,100585.84
2022-10-02T18:57:42.983Z,100599.91
2022-10-02T19:00:18.918Z,100593.06
2022-10-02T19:03:16.473Z,100591.84
2022-10-02T19:05:51.767Z,100592.13
2022-10-02T19:08:24.210Z,100601.66
2022-10-02T19:10:51.853Z,100604.13
2022-10-02T19:13:27.385Z,100598.34
2022-10-02T19:15:57.841Z,100613.09
2022-10-02T19:18:29.326Z,100617.25
2022-10-02T19:21:06.532Z,100611.75
2022-10-02T19:23:40.051Z,100621.53
2022-10-02T19:26:17.665Z,100617.41
2022-10-02T19:28:48.439Z,100625.09
2022-10-02T19:31:22.610Z,100633.63
2022-10-02T19:33:57.109Z,100635.09
2022-10-02T19:36:30.276Z,100636.13
2022-10-02T19:39:01.292Z,100644.41
2022-10-02T19:41:35.361Z,100653.94
2022-10-02T19:44:07.094Z,100644.88
2022-10-02T19:46:40.437Z,100656.91
2022-10-02T19:49:15.319Z,100651.75
2022-10-02T19:51:47.579Z,100657.13
2022-10-02T19:54:20.960Z,100666.94
2022-10-02T19:56:49.031Z,100663.66
2022-10-02T19:59:19.967Z,100668.44
2022-10-02T20:01:52.646Z,100674.66
2022-10-02T20:04:23.557Z,100681.72
2022-10-02T20:06:56.599Z,100679.09
2022-10-02T20:09:31.096Z,100682.66
2022-10-02T20:12:05.088Z,100688.34
2022-10-02T20:14:38.378Z,100694.44
2022-10-02T20:17:11.055Z,100698.19
2022-10-02T20:19:45.081Z,100694.66
2022-10-02T20:22:23.907Z,100700.72
2022-10-02T20:24:58.190Z,100699.50
2022-10-02T20:27:36.059Z,100706.16
2022-10-02T20:30:06.930Z,100708.59
2022-10-02T20:32:38.380Z,100710.31
2022-10-02T20:35:15.461Z,100716.69
2022-10-02T20:37:49.793Z,100716.41
2022-10-02T20:40:20.164Z,100719.22
2022-10-02T20:42:55.481Z,100723.28
2022-10-02T20:45:28.003Z,100721.13
2022-10-02T20:48:26.060Z,100730.69
2022-10-02T20:51:01.843Z,100737.88
2022-10-02T20:54:13.006Z,100739.34
2022-10-02T20:56:59.395Z,100741.31
2022-10-02T21:00:01.225Z,100744.63
2022-10-02T21:02:48.059Z,100741.38
2022-10-02T21:05:38.906Z,100746.28
2022-10-02T21:08:32.832Z,100755.50
2022-10-02T21:11:31.931Z,100757.72
2022-10-02T21:14:35.232Z,100749.66
2022-10-02T21:17:35.322Z,100762.84
2022-10-02T21:20:51.745Z,100755.22
2022-10-02T21:23:53.570Z,100764.09
2022-10-02T21:27:03.056Z,100764.56
2022-10-02T21:29:56.046Z,100775.50
2022-10-02T21:32:37.151Z,100779.59
2022-10-02T21:35:17.575Z,100775.59
2022-10-02T21:38:01.000Z,100773.84
2022-10-02T21:41:28.442Z,100778.72
2022-10-02T21:44:26.383Z,100772.06
2022-10-02T21:47:28.569Z,100774.75
2022-10-02T21:50:32.543Z,100780.78
2022-10-02T21:53:25.189Z,100788.00
2022-10-02T21:56:16.964Z,100784.66
2022-10-02T21:59:40.244Z,100793.09
2022-10-02T22:02:38.742Z,100800.84
2022-10-02T22:05:30.163Z,100805.94
2022-10-02T22:08:09.895Z,100811.31
2022-10-02T22:10:49.189Z,100814.34
2022-10-02T22:13:25.712Z,100819.44
2022-10-02T22:16:09.222Z,100829.72
2022-10-02T22:18:48.199Z,100824.16
2022-10-02T22:21:30.558Z,100822.19
2022-10-02T22:24:14.487Z,100827.09
2022-10-02T22:27:00.911Z,100829.59
2022-10-02T22:29:38.620Z,100835.97
2022-10-02T22:32:52.191Z,100843.19
2022-10-02T22:35:31.000Z,100842.00
2022-10-02T22:38:13.111Z,100844.22
2022-10-02T22:40:47.119Z,100846.91
2022-10-02T22:43:25.559Z,100851.19
2022-10-02T22:45:59.702Z,100860.13
2022-10-02T22:48:38.688Z,100857.88
2022-10-02T22:51:18.755Z,100861.03
2022-10-02T22:53:50.833Z,100863.22
2022-10-02T22:56:26.401Z,100868.78
2022-10-02T22:59:06.328Z,100868.78
2022-10-02T23:01:44.239Z,100867.13
2022-10-02T23:04:25.166Z,100864.78
2022-10-02T23:07:02.152Z,100873.13
2022-10-02T23:09:42.272Z,100874.66
2022-10-02T23:12:16.312Z,100872.72
2022-10-02T23:14:58.113Z,100874.91
2022-10-02T23:17:31.483Z,100873.38
2022-10-02T23:20:07.666Z,100881.38
2022-10-02T23:22:39.896Z,100875.63
2022-10-02T23:25:20.321Z,100880.53
2022-10-02T23:27:55.910Z,100887.78
2022-10-02T23:30:25.428Z,100887.47
2022-10-02T23:32:58.788Z,100891.34
2022-10-02T23:35:33.403Z,100896.25
2022-10-02T23:38:07.791Z,100900.78
2022-10-02T23:41:17.494Z,100907.00
2022-10-02T23:43:51.145Z,100903.66
2022-10-02T23:46:28.260Z,100906.16
2022-10-02T23:48:56.646Z,100906.84
2022-10-02T23:51:35.467Z,100906.22
2022-10-02T23:54:36.068Z,100904.25
2022-10-02T23:57:26.054Z,100911.78
